createdAt,value
2022-08-21T00:00:27.020Z,78.82
2022-08-21T00:02:30.293Z,79.28
2022-08-21T00:04:35.986Z,78.50
2022-08-21T00:06:39.295Z,82.60
2022-08-21T00:08:42.701Z,84.45
2022-08-21T00:10:46.966Z,72.00
2022-08-21T00:12:50.539Z,70.57
2022-08-21T00:14:57.188Z,79.38
2022-08-21T00:17:02.405Z,74.30
2022-08-21T00:19:06.750Z,77.07
2022-08-21T00:21:13.213Z,81.05
2022-08-21T00:23:17.027Z,88.85
2022-08-21T00:25:24.353Z,84.75
2022-08-21T00:27:29.487Z,80.63
2022-08-21T00:29:32.647Z,83.68
2022-08-21T00:31:36.018Z,81.57
2022-08-21T00:33:39.549Z,80.93
2022-08-21T00:35:44.153Z,83.47
2022-08-21T00:37:50.462Z,76.32
2022-08-21T00:39:55.404Z,77.38
2022-08-21T00:41:58.865Z,77.03
2022-08-21T00:44:02.533Z,82.70
2022-08-21T00:46:07.226Z,83.45
2022-08-21T00:48:10.889Z,75.95
2022-08-21T00:50:21.678Z,77.43
2022-08-21T00:52:29.255Z,78.47
2022-08-21T00:54:35.584Z,82.47
2022-08-21T00:56:38.898Z,80.45
2022-08-21T00:58:45.790Z,73.45
2022-08-21T01:00:51.081Z,80.45
2022-08-21T01:02:54.203Z,77.63
2022-08-21T01:04:57.162Z,70.22
2022-08-21T01:07:00.220Z,75.05
2022-08-21T01:09:04.534Z,71.10
2022-08-21T01:11:10.634Z,73.05
2022-08-21T01:13:16.698Z,64.55
2022-08-21T01:15:21.678Z,74.47
2022-08-21T01:17:24.902Z,68.93
2022-08-21T01:19:28.780Z,71.75
2022-08-21T01:21:34.646Z,66.55
2022-08-21T01:23:41.385Z,67.13
2022-08-21T01:25:44.525Z,61.92
2022-08-21T01:27:47.615Z,61.03
2022-08-21T01:29:57.210Z,67.10
2022-08-21T01:32:06.644Z,59.63
2022-08-21T01:34:11.096Z,61.30
2022-08-21T01:36:14.301Z,58.13
2022-08-21T01:38:20.203Z,60.85
2022-08-21T01:40:23.361Z,58.72
2022-08-21T01:42:26.442Z,55.88
2022-08-21T01:44:29.545Z,53.65
2022-08-21T01:46:33.201Z,52.75
2022-08-21T01:48:36.615Z,58.95
2022-08-21T01:50:39.727Z,49.47
2022-08-21T01:52:43.344Z,55.63
2022-08-21T01:54:51.155Z,54.75
2022-08-21T01:57:00.551Z,56.00
2022-08-21T01:59:03.619Z,49.78
2022-08-21T02:01:06.960Z,46.50
2022-08-21T02:03:10.121Z,46.20
2022-08-21T02:05:13.934Z,43.03
2022-08-21T02:07:16.965Z,47.92
2022-08-21T02:09:20.177Z,42.58
2022-08-21T02:11:26.217Z,43.38
2022-08-21T02:13:29.178Z,46.10
2022-08-21T02:15:32.333Z,43.13
2022-08-21T02:17:40.950Z,42.13
2022-08-21T02:19:43.968Z,43.78
2022-08-21T02:21:46.990Z,45.20
2022-08-21T02:23:49.954Z,48.55
2022-08-21T02:25:52.983Z,44.50
2022-08-21T02:28:00.648Z,46.53
2022-08-21T02:30:04.348Z,48.28
2022-08-21T02:32:07.487Z,39.85
2022-08-21T02:34:16.401Z,45.73
2022-08-21T02:36:19.594Z,47.17
2022-08-21T02:38:28.351Z,46.50
2022-08-21T02:40:34.398Z,38.92
2022-08-21T02:42:37.708Z,47.00
2022-08-21T02:44:43.459Z,42.08
2022-08-21T02:46:46.491Z,43.60
2022-08-21T02:48:49.935Z,42.03
2022-08-21T02:50:56.084Z,41.85
2022-08-21T02:52:59.951Z,38.42
2022-08-21T02:55:03.412Z,37.88
2022-08-21T02:57:06.516Z,38.33
2022-08-21T02:59:09.539Z,37.00
2022-08-21T03:01:15.858Z,32.83
2022-08-21T03:03:19.448Z,37.17
2022-08-21T03:05:23.314Z,37.92
2022-08-21T03:07:26.317Z,38.00
2022-08-21T03:09:29.337Z,36.05
2022-08-21T03:11:32.406Z,34.63
2022-08-21T03:13:35.401Z,33.80
2022-08-21T03:15:39.343Z,31.70
2022-08-21T03:17:45.551Z,36.05
2022-08-21T03:19:48.563Z,33.42
2022-08-21T03:21:55.556Z,31.50
2022-08-21T03:23:58.177Z,30.27
2022-08-21T03:26:01.259Z,33.70
2022-08-21T03:28:06.760Z,34.65
2022-08-21T03:30:12.268Z,32.10
2022-08-21T03:32:15.253Z,33.53
2022-08-21T03:34:21.141Z,33.30
2022-08-21T03:36:24.348Z,31.65
2022-08-21T03:38:28.382Z,32.08
2022-08-21T03:40:31.405Z,28.20
2022-08-21T03:42:34.541Z,31.10
2022-08-21T03:44:37.683Z,34.20
2022-08-21T03:46:40.844Z,30.88
2022-08-21T03:48:43.891Z,32.38
2022-08-21T03:50:49.611Z,35.72
2022-08-21T03:52:52.919Z,29.75
2022-08-21T03:54:55.973Z,34.00
2022-08-21T03:56:59.059Z,33.63
2022-08-21T03:59:02.151Z,38.30
2022-08-21T04:01:07.097Z,39.13
2022-08-21T04:03:10.118Z,36.47
2022-08-21T04:05:14.806Z,33.20
2022-08-21T04:07:20.433Z,38.03
2022-08-21T04:09:24.486Z,36.33
2022-08-21T04:11:27.461Z,38.88
2022-08-21T04:13:30.541Z,35.85
2022-08-21T04:15:34.158Z,38.67
2022-08-21T04:17:37.190Z,38.95
2022-08-21T04:19:40.158Z,36.55
2022-08-21T04:21:44.024Z,37.85
2022-08-21T04:23:49.727Z,34.33
2022-08-21T04:25:54.022Z,32.75
2022-08-21T04:27:57.407Z,33.55
2022-08-21T04:30:00.419Z,36.70
2022-08-21T04:32:04.126Z,29.33
2022-08-21T04:34:07.274Z,33.88
2022-08-21T04:36:10.657Z,28.30
2022-08-21T04:38:13.717Z,27.55
2022-08-21T04:40:21.330Z,30.60
2022-08-21T04:42:24.695Z,28.88
2022-08-21T04:44:27.665Z,30.45
2022-08-21T04:46:30.767Z,28.98
2022-08-21T04:48:34.233Z,27.58
2022-08-21T04:50:42.611Z,34.03
2022-08-21T04:52:46.247Z,27.65
2022-08-21T04:54:54.793Z,29.35
2022-08-21T04:57:03.517Z,27.83
2022-08-21T04:59:13.954Z,31.15
2022-08-21T05:01:20.663Z,27.85
2022-08-21T05:03:24.314Z,28.05
2022-08-21T05:05:29.322Z,30.17
2022-08-21T05:07:42.620Z,32.90
2022-08-21T05:09:46.579Z,31.15
2022-08-21T05:11:50.037Z,28.67
2022-08-21T05:13:57.018Z,31.02
2022-08-21T05:16:00.518Z,29.08
2022-08-21T05:18:03.770Z,32.22
2022-08-21T05:20:07.788Z,29.58
2022-08-21T05:22:10.858Z,32.08
2022-08-21T05:24:13.889Z,32.90
2022-08-21T05:26:18.684Z,32.28
2022-08-21T05:28:21.837Z,30.17
2022-08-21T05:30:27.584Z,29.65
2022-08-21T05:32:30.766Z,30.25
2022-08-21T05:34:33.803Z,28.67
2022-08-21T05:36:37.111Z,36.35
2022-08-21T05:38:40.107Z,30.48
2022-08-21T05:40:43.170Z,27.98
2022-08-21T05:42:54.634Z,28.77
2022-08-21T05:44:58.452Z,24.05
2022-08-21T05:47:08.643Z,24.25
2022-08-21T05:49:12.683Z,27.80
2022-08-21T05:51:16.651Z,27.30
2022-08-21T05:53:21.708Z,28.90
2022-08-21T05:55:24.769Z,27.23
2022-08-21T05:57:27.764Z,21.50
2022-08-21T05:59:30.817Z,27.55
2022-08-21T06:01:33.931Z,25.95
2022-08-21T06:03:42.254Z,28.20
2022-08-21T06:05:45.418Z,25.13
2022-08-21T06:07:48.534Z,24.77
2022-08-21T06:09:51.542Z,26.88
2022-08-21T06:11:54.734Z,26.17
2022-08-21T06:13:58.286Z,21.63
2022-08-21T06:16:07.509Z,20.33
2022-08-21T06:18:11.017Z,20.92
2022-08-21T06:20:16.782Z,19.50
2022-08-21T06:22:20.045Z,19.83
2022-08-21T06:24:23.068Z,18.20
2022-08-21T06:26:26.199Z,17.58
2022-08-21T06:28:29.316Z,17.05
2022-08-21T06:30:33.295Z,15.18
2022-08-21T06:32:36.411Z,14.48
2022-08-21T06:34:40.778Z,16.05
2022-08-21T06:36:46.500Z,18.30
2022-08-21T06:38:51.903Z,18.02
2022-08-21T06:40:55.026Z,19.05
2022-08-21T06:42:58.919Z,15.15
2022-08-21T06:45:02.023Z,11.35
2022-08-21T06:47:05.488Z,20.45
2022-08-21T06:49:08.524Z,13.43
2022-08-21T06:51:20.565Z,14.43
2022-08-21T06:53:26.874Z,14.57
2022-08-21T06:55:30.192Z,14.15
2022-08-21T06:57:34.239Z,16.70
2022-08-21T06:59:39.815Z,17.10
2022-08-21T07:01:42.854Z,17.75
2022-08-21T07:03:45.566Z,15.43
2022-08-21T07:05:49.193Z,17.30
2022-08-21T07:08:06.963Z,15.15
2022-08-21T07:10:28.336Z,16.73
2022-08-21T07:12:43.915Z,14.57
2022-08-21T07:14:46.989Z,14.65
2022-08-21T07:16:50.247Z,14.93
2022-08-21T07:18:53.420Z,13.07
2022-08-21T07:20:56.911Z,16.23
2022-08-21T07:23:02.931Z,18.55
2022-08-21T07:25:07.130Z,17.27
2022-08-21T07:27:12.839Z,12.30
2022-08-21T07:29:17.377Z,15.60
2022-08-21T07:31:25.836Z,13.57
2022-08-21T07:33:31.616Z,14.07
2022-08-21T07:35:34.977Z,14.45
2022-08-21T07:37:38.895Z,12.23
2022-08-21T07:39:42.779Z,11.00
2022-08-21T07:41:46.094Z,15.05
2022-08-21T07:43:52.839Z,12.90
2022-08-21T07:45:56.336Z,17.88
2022-08-21T07:47:59.546Z,15.45
2022-08-21T07:50:02.698Z,10.38
2022-08-21T07:52:08.603Z,13.18
2022-08-21T07:54:12.097Z,12.95
2022-08-21T07:56:21.273Z,13.38
2022-08-21T07:58:24.377Z,15.32
2022-08-21T08:00:31.220Z,11.13
2022-08-21T08:02:34.369Z,12.15
2022-08-21T08:04:37.775Z,15.98
2022-08-21T08:06:53.818Z,20.05
2022-08-21T08:08:57.263Z,13.52
2022-08-21T08:11:00.533Z,12.30
2022-08-21T08:13:03.698Z,12.75
2022-08-21T08:15:10.279Z,12.38
2022-08-21T08:17:15.897Z,12.70
2022-08-21T08:19:19.346Z,17.42
2022-08-21T08:21:23.022Z,13.23
2022-08-21T08:23:28.998Z,14.25
2022-08-21T08:25:36.888Z,13.10
2022-08-21T08:27:41.361Z,14.80
2022-08-21T08:29:47.452Z,14.88
2022-08-21T08:31:50.678Z,16.13
2022-08-21T08:33:57.681Z,14.32
2022-08-21T08:36:06.065Z,14.20
2022-08-21T08:38:11.314Z,13.90
2022-08-21T08:40:19.185Z,15.70
2022-08-21T08:42:32.730Z,15.43
2022-08-21T08:44:38.266Z,16.95
2022-08-21T08:46:45.756Z,14.15
2022-08-21T08:48:53.623Z,14.95
2022-08-21T08:51:03.728Z,12.55
2022-08-21T08:53:11.861Z,15.07
2022-08-21T08:55:19.051Z,13.15
2022-08-21T08:57:24.317Z,13.23
2022-08-21T08:59:30.695Z,12.70
2022-08-21T09:01:38.591Z,13.85
2022-08-21T09:03:42.334Z,14.55
2022-08-21T09:05:49.167Z,16.13
2022-08-21T09:08:20.546Z,16.23
2022-08-21T09:10:31.483Z,16.05
2022-08-21T09:12:45.420Z,16.20
2022-08-21T09:15:07.597Z,14.32
2022-08-21T09:17:24.547Z,12.98
2022-08-21T09:19:44.833Z,16.75
2022-08-21T09:21:57.084Z,13.48
2022-08-21T09:24:19.252Z,13.05
2022-08-21T09:26:25.591Z,13.15
2022-08-21T09:28:33.601Z,12.20
2022-08-21T09:30:36.643Z,13.27
2022-08-21T09:32:40.590Z,13.50
2022-08-21T09:34:43.615Z,12.70
2022-08-21T09:36:50.029Z,10.60
2022-08-21T09:38:55.308Z,13.27
2022-08-21T09:41:03.899Z,12.95
2022-08-21T09:43:16.811Z,10.00
2022-08-21T09:45:20.210Z,13.82
2022-08-21T09:47:27.769Z,11.57
2022-08-21T09:49:33.205Z,12.73
2022-08-21T09:51:37.711Z,8.18
2022-08-21T09:53:46.301Z,12.55
2022-08-21T09:55:53.128Z,9.85
2022-08-21T09:57:58.878Z,12.38
2022-08-21T10:00:10.634Z,10.68
2022-08-21T10:02:36.066Z,10.55
2022-08-21T10:04:39.056Z,10.73
2022-08-21T10:06:42.214Z,10.27
2022-08-21T10:08:45.253Z,11.35
2022-08-21T10:10:56.415Z,14.25
2022-08-21T10:13:12.835Z,10.88
2022-08-21T10:15:23.303Z,10.15
2022-08-21T10:17:33.241Z,10.38
2022-08-21T10:19:44.129Z,7.90
2022-08-21T10:22:00.599Z,10.55
2022-08-21T10:24:30.452Z,10.82
2022-08-21T10:26:45.893Z,14.05
2022-08-21T10:29:01.461Z,9.63
2022-08-21T10:31:11.900Z,8.38
2022-08-21T10:33:27.372Z,10.43
2022-08-21T10:35:34.052Z,6.90
2022-08-21T10:37:49.770Z,9.98
2022-08-21T10:40:06.331Z,7.82
2022-08-21T10:42:31.445Z,8.85
2022-08-21T10:44:44.766Z,6.63
2022-08-21T10:46:54.097Z,5.70
2022-08-21T10:49:00.425Z,13.20
2022-08-21T10:51:10.318Z,7.72
2022-08-21T10:55:26.934Z,5.43
2022-08-21T10:57:39.407Z,7.53
2022-08-21T10:59:52.946Z,6.00
2022-08-21T11:02:01.545Z,7.15
2022-08-21T11:04:13.059Z,9.55
2022-08-21T11:06:21.117Z,5.30
2022-08-21T11:08:29.534Z,9.68
2022-08-21T11:10:51.204Z,10.53
2022-08-21T11:13:13.436Z,6.95
2022-08-21T11:15:30.020Z,4.80
2022-08-21T11:17:39.407Z,5.93
2022-08-21T11:19:48.958Z,8.27
2022-08-21T11:21:58.907Z,6.47
2022-08-21T11:24:13.935Z,8.40
2022-08-21T11:26:30.085Z,5.88
2022-08-21T11:28:39.797Z,6.78
2022-08-21T11:33:12.311Z,5.85
2022-08-21T11:35:23.064Z,7.82
2022-08-21T11:37:40.967Z,8.27
2022-08-21T11:39:51.719Z,5.70
2022-08-21T11:42:00.972Z,7.00
2022-08-21T11:44:15.405Z,7.07
2022-08-21T11:46:29.127Z,7.70
2022-08-21T11:48:41.625Z,8.15
2022-08-21T11:50:46.528Z,6.15
2022-08-21T11:52:55.264Z,7.30
2022-08-21T11:55:02.381Z,5.82
2022-08-21T11:57:08.995Z,8.82
2022-08-21T11:59:17.594Z,6.97
2022-08-21T12:01:26.308Z,5.93
2022-08-21T12:03:31.807Z,6.38
2022-08-21T12:05:39.054Z,9.05
2022-08-21T12:07:43.426Z,9.73
2022-08-21T12:09:54.745Z,5.93
2022-08-21T12:12:03.726Z,5.28
2022-08-21T12:14:16.349Z,5.50
2022-08-21T12:16:34.066Z,4.68
2022-08-21T12:18:37.488Z,7.10
2022-08-21T12:20:47.441Z,6.15
2022-08-21T12:23:04.100Z,5.85
2022-08-21T12:25:10.732Z,6.30
2022-08-21T12:27:28.380Z,4.95
2022-08-21T12:29:33.764Z,4.63
2022-08-21T12:31:50.847Z,3.53
2022-08-21T12:34:00.156Z,5.30
2022-08-21T12:36:10.242Z,5.13
2022-08-21T12:38:18.692Z,7.20
2022-08-21T12:40:24.539Z,7.53
2022-08-21T12:42:37.290Z,8.23
2022-08-21T12:44:44.823Z,7.95
2022-08-21T12:47:00.004Z,4.07
2022-08-21T12:49:09.344Z,3.47
2022-08-21T12:51:21.127Z,8.13
2022-08-21T12:53:32.922Z,5.80
2022-08-21T12:55:42.879Z,8.05
2022-08-21T12:57:45.956Z,8.20
2022-08-21T12:59:53.826Z,5.57
2022-08-21T13:02:02.429Z,5.15
2022-08-21T13:04:10.760Z,7.72
2022-08-21T13:06:16.742Z,6.30
2022-08-21T13:08:22.184Z,5.72
2022-08-21T13:10:29.001Z,6.68
2022-08-21T13:12:33.748Z,6.35
2022-08-21T13:14:45.863Z,4.13
2022-08-21T13:16:56.825Z,7.00
2022-08-21T13:19:05.367Z,8.65
2022-08-21T13:21:12.709Z,5.55
2022-08-21T13:23:22.087Z,7.88
2022-08-21T13:25:28.635Z,4.25
2022-08-21T13:27:31.938Z,6.78
2022-08-21T13:29:35.331Z,7.68
2022-08-21T13:31:44.003Z,6.72
2022-08-21T13:33:47.147Z,8.15
2022-08-21T13:36:08.554Z,3.10
2022-08-21T13:38:11.801Z,4.95
2022-08-21T13:40:18.254Z,9.40
2022-08-21T13:42:21.860Z,7.57
2022-08-21T13:44:35.509Z,3.70
2022-08-21T13:46:38.952Z,4.63
2022-08-21T13:48:43.136Z,7.47
2022-08-21T13:50:46.995Z,6.95
2022-08-21T13:52:58.812Z,3.50
2022-08-21T13:55:13.614Z,6.93
2022-08-21T13:57:24.942Z,8.13
2022-08-21T13:59:31.403Z,7.38
2022-08-21T14:01:37.738Z,3.83
2022-08-21T14:03:45.228Z,5.35
2022-08-21T14:05:48.179Z,5.00
2022-08-21T14:08:03.104Z,5.25
2022-08-21T14:10:07.989Z,8.05
2022-08-21T14:12:22.285Z,7.28
2022-08-21T14:14:30.895Z,7.25
2022-08-21T14:16:44.613Z,7.70
2022-08-21T14:18:51.075Z,29.80
2022-08-21T14:21:05.505Z,5.30
2022-08-21T14:23:11.253Z,4.32
2022-08-21T14:25:27.770Z,7.00
2022-08-21T14:27:31.642Z,5.15
2022-08-21T14:29:40.416Z,3.88
2022-08-21T14:31:50.720Z,4.47
2022-08-21T14:33:53.981Z,3.93
2022-08-21T14:35:57.286Z,3.38
2022-08-21T14:38:00.230Z,6.63
2022-08-21T14:40:07.087Z,6.65
2022-08-21T14:42:10.073Z,2.70
2022-08-21T14:44:13.762Z,3.40
2022-08-21T14:46:22.310Z,6.07
2022-08-21T14:48:25.300Z,5.68
2022-08-21T14:50:28.414Z,8.57
2022-08-21T14:52:31.431Z,6.18
2022-08-21T14:54:34.553Z,3.00
2022-08-21T14:56:40.244Z,4.88
2022-08-21T14:58:46.073Z,6.43
2022-08-21T15:00:49.035Z,5.57
2022-08-21T15:02:53.052Z,4.65
2022-08-21T15:04:56.055Z,5.25
2022-08-21T15:06:59.081Z,2.65
2022-08-21T15:09:02.018Z,4.70
2022-08-21T15:11:18.561Z,8.32
2022-08-21T15:13:32.879Z,6.95
2022-08-21T15:15:41.331Z,7.55
2022-08-21T15:17:48.125Z,4.85
2022-08-21T15:19:51.773Z,6.30
2022-08-21T15:21:54.986Z,6.05
2022-08-21T15:23:57.965Z,4.13
2022-08-21T15:26:00.945Z,4.47
2022-08-21T15:28:05.729Z,6.38
2022-08-21T15:30:12.401Z,6.93
2022-08-21T15:32:22.062Z,7.95
2022-08-21T15:34:27.323Z,5.95
2022-08-21T15:36:31.130Z,7.55
2022-08-21T15:38:34.103Z,2.88
2022-08-21T15:40:37.657Z,5.63
2022-08-21T15:42:41.125Z,7.60
2022-08-21T15:44:44.898Z,5.25
2022-08-21T15:46:50.512Z,5.40
2022-08-21T15:48:59.243Z,4.00
2022-08-21T15:51:02.846Z,7.72
2022-08-21T15:53:05.809Z,7.95
2022-08-21T15:55:10.339Z,5.45
2022-08-21T15:57:16.094Z,5.32
2022-08-21T15:59:21.805Z,11.20
2022-08-21T16:01:24.954Z,4.38
2022-08-21T16:03:30.578Z,4.65
2022-08-21T16:05:47.506Z,4.18
2022-08-21T16:08:04.460Z,5.18
2022-08-21T16:10:08.118Z,8.13
2022-08-21T16:12:16.441Z,6.05
2022-08-21T16:14:19.522Z,4.55
2022-08-21T16:16:24.532Z,7.22
2022-08-21T16:18:30.317Z,4.18
2022-08-21T16:20:33.568Z,4.60
2022-08-21T16:22:44.955Z,3.90
2022-08-21T16:24:48.105Z,6.60
2022-08-21T16:26:57.992Z,3.67
2022-08-21T16:29:02.720Z,3.92
2022-08-21T16:31:05.792Z,3.60
2022-08-21T16:33:19.376Z,3.70
2022-08-21T16:35:25.018Z,6.30
2022-08-21T16:37:28.033Z,4.72
2022-08-21T16:39:31.218Z,6.30
2022-08-21T16:41:35.963Z,7.90
2022-08-21T16:43:40.426Z,4.63
2022-08-21T16:45:44.086Z,9.55
2022-08-21T16:47:47.466Z,6.88
2022-08-21T16:49:50.581Z,3.70
2022-08-21T16:51:56.344Z,5.55
2022-08-21T16:53:59.870Z,6.28
2022-08-21T16:56:03.503Z,7.30
2022-08-21T16:58:13.119Z,4.25
2022-08-21T17:00:16.507Z,4.95
2022-08-21T17:02:28.854Z,6.22
2022-08-21T17:04:31.940Z,5.68
2022-08-21T17:06:34.935Z,5.13
2022-08-21T17:08:40.801Z,4.28
2022-08-21T17:10:47.954Z,4.70
2022-08-21T17:12:56.536Z,5.68
2022-08-21T17:15:03.808Z,6.50
2022-08-21T17:17:09.475Z,5.57
2022-08-21T17:19:12.606Z,6.55
2022-08-21T17:21:18.679Z,4.30
2022-08-21T17:23:22.058Z,7.00
2022-08-21T17:25:28.245Z,4.97
2022-08-21T17:27:31.260Z,5.30
2022-08-21T17:29:37.127Z,5.82
2022-08-21T17:31:41.001Z,5.55
2022-08-21T17:33:46.074Z,4.22
2022-08-21T17:35:49.306Z,5.63
2022-08-21T17:37:52.479Z,3.88
2022-08-21T17:39:55.523Z,4.05
2022-08-21T17:42:04.746Z,6.15
2022-08-21T17:44:11.707Z,4.53
2022-08-21T17:46:21.975Z,5.13
2022-08-21T17:48:25.469Z,6.95
2022-08-21T17:50:28.634Z,4.97
2022-08-21T17:52:31.888Z,4.30
2022-08-21T17:54:35.735Z,6.60
2022-08-21T17:56:40.966Z,6.22
2022-08-21T17:58:48.545Z,4.93
2022-08-21T18:00:51.374Z,5.22
2022-08-21T18:03:00.891Z,4.68
2022-08-21T18:05:11.900Z,4.90
2022-08-21T18:07:31.763Z,5.53
2022-08-21T18:09:35.838Z,5.75
2022-08-21T18:11:40.909Z,7.47
2022-08-21T18:13:46.673Z,6.43
2022-08-21T18:15:51.266Z,6.00
2022-08-21T18:17:54.358Z,6.30
2022-08-21T18:19:57.373Z,5.47
2022-08-21T18:22:04.326Z,7.82
2022-08-21T18:24:07.951Z,7.40
2022-08-21T18:26:11.209Z,12.10
2022-08-21T18:28:14.592Z,6.55
2022-08-21T18:30:22.950Z,11.13
2022-08-21T18:32:31.628Z,6.55
2022-08-21T18:34:38.934Z,10.25
2022-08-21T18:36:41.929Z,6.22
2022-08-21T18:38:44.867Z,7.53
2022-08-21T18:40:55.573Z,13.00
2022-08-21T18:43:01.501Z,7.80
2022-08-21T18:45:08.919Z,4.53
2022-08-21T18:47:20.809Z,6.90
2022-08-21T18:49:23.974Z,6.10
2022-08-21T18:51:27.213Z,6.20
2022-08-21T18:53:32.025Z,6.18
2022-08-21T18:55:36.232Z,5.10
2022-08-21T18:57:46.507Z,6.70
2022-08-21T18:59:49.688Z,11.02
2022-08-21T19:01:52.764Z,8.88
2022-08-21T19:03:58.808Z,6.93
2022-08-21T19:06:01.821Z,6.93
2022-08-21T19:08:05.928Z,7.43
2022-08-21T19:10:28.698Z,6.43
2022-08-21T19:12:33.750Z,11.88
2022-08-21T19:14:36.959Z,7.65
2022-08-21T19:16:47.422Z,4.70
2022-08-21T19:18:50.788Z,6.75
2022-08-21T19:20:57.356Z,7.20
2022-08-21T19:23:01.134Z,10.50
2022-08-21T19:25:04.938Z,9.07
2022-08-21T19:27:09.787Z,6.68
2022-08-21T19:29:16.442Z,9.82
2022-08-21T19:31:23.602Z,10.85
2022-08-21T19:33:31.848Z,13.88
2022-08-21T19:35:36.972Z,8.50
2022-08-21T19:37:42.925Z,8.13
2022-08-21T19:39:48.775Z,5.82
2022-08-21T19:41:57.158Z,8.52
2022-08-21T19:44:04.482Z,9.25
2022-08-21T19:46:07.855Z,5.93
2022-08-21T19:48:11.243Z,8.20
2022-08-21T19:50:21.530Z,7.18
2022-08-21T19:52:25.218Z,9.18
2022-08-21T19:54:32.565Z,9.50
2022-08-21T19:56:35.891Z,6.75
2022-08-21T19:58:42.908Z,8.20
2022-08-21T20:00:46.754Z,13.18
2022-08-21T20:02:50.041Z,12.23
2022-08-21T20:04:55.005Z,12.43
2022-08-21T20:06:58.103Z,17.77
2022-08-21T20:09:01.025Z,11.30
2022-08-21T20:11:07.916Z,13.88
2022-08-21T20:13:12.356Z,9.75
2022-08-21T20:15:19.407Z,15.77
2022-08-21T20:17:22.854Z,8.48
2022-08-21T20:19:25.939Z,11.75
2022-08-21T20:21:43.676Z,10.25
2022-08-21T20:26:13.867Z,9.60
2022-08-21T20:28:17.109Z,12.20
2022-08-21T20:30:22.875Z,9.45
2022-08-21T20:32:26.456Z,10.73
2022-08-21T20:34:30.038Z,14.45
2022-08-21T20:36:32.655Z,12.18
2022-08-21T20:38:37.592Z,10.90
2022-08-21T20:40:41.792Z,11.05
2022-08-21T20:42:50.831Z,10.00
2022-08-21T20:44:54.209Z,13.65
2022-08-21T20:46:58.547Z,10.48
2022-08-21T20:49:01.628Z,9.85
2022-08-21T20:51:07.877Z,8.63
2022-08-21T20:53:16.059Z,14.25
2022-08-21T20:55:29.373Z,16.73
2022-08-21T20:57:39.905Z,13.55
2022-08-21T20:59:52.570Z,13.15
2022-08-21T21:02:01.214Z,18.10
2022-08-21T21:06:35.597Z,15.60
2022-08-21T21:08:46.612Z,11.48
2022-08-21T21:10:55.539Z,11.82
2022-08-21T21:13:02.587Z,14.00
2022-08-21T21:15:14.235Z,8.73
2022-08-21T21:17:28.266Z,12.88
2022-08-21T21:19:38.825Z,8.93
2022-08-21T21:24:15.599Z,8.73
2022-08-21T21:28:55.313Z,12.93
2022-08-21T21:33:25.683Z,12.43
2022-08-21T21:35:39.681Z,8.85
2022-08-21T21:37:47.086Z,8.88
2022-08-21T21:39:58.080Z,11.73
2022-08-21T21:42:11.346Z,12.23
2022-08-21T21:44:39.993Z,11.55
2022-08-21T21:46:52.331Z,14.48
2022-08-21T21:49:11.491Z,12.15
2022-08-21T21:51:24.720Z,12.63
2022-08-21T21:53:42.721Z,11.45
2022-08-21T21:55:57.513Z,11.93
2022-08-21T21:58:20.301Z,10.38
2022-08-21T22:00:30.817Z,8.95
2022-08-21T22:02:46.415Z,8.55
2022-08-21T22:04:57.673Z,11.90
2022-08-21T22:07:07.096Z,14.27
2022-08-21T22:09:18.546Z,12.02
2022-08-21T22:11:29.304Z,9.75
2022-08-21T22:13:45.645Z,9.70
2022-08-21T22:15:48.993Z,9.75
2022-08-21T22:18:01.144Z,14.55
2022-08-21T22:20:12.277Z,9.60
2022-08-21T22:22:19.904Z,11.15
2022-08-21T22:24:28.032Z,10.75
2022-08-21T22:26:37.811Z,10.90
2022-08-21T22:28:44.088Z,13.63
2022-08-21T22:30:51.336Z,12.80
2022-08-21T22:33:00.134Z,13.20
2022-08-21T22:35:09.353Z,10.77
2022-08-21T22:37:12.700Z,9.85
2022-08-21T22:39:24.859Z,12.95
2022-08-21T22:41:31.656Z,9.02
2022-08-21T22:43:37.015Z,11.52
2022-08-21T22:45:54.968Z,11.75
2022-08-21T22:48:11.236Z,11.70
2022-08-21T22:50:31.345Z,11.48
2022-08-21T22:52:36.852Z,13.20
2022-08-21T22:54:43.284Z,13.25
2022-08-21T22:56:58.672Z,10.43
2022-08-21T22:59:04.802Z,16.42
2022-08-21T23:01:16.870Z,12.73
2022-08-21T23:03:30.422Z,8.95
2022-08-21T23:05:36.616Z,14.90
2022-08-21T23:07:43.616Z,12.40
2022-08-21T23:09:49.769Z,12.43
2022-08-21T23:11:59.494Z,11.63
2022-08-21T23:14:04.596Z,11.10
2022-08-21T23:16:23.338Z,13.27
2022-08-21T23:18:43.535Z,13.70
2022-08-21T23:20:56.856Z,10.65
2022-08-21T23:23:09.934Z,10.80
2022-08-21T23:25:33.721Z,11.35
2022-08-21T23:27:51.505Z,11.85
2022-08-21T23:30:04.274Z,13.73
2022-08-21T23:32:26.533Z,11.90
2022-08-21T23:35:01.057Z,13.13
2022-08-21T23:37:16.874Z,13.68
2022-08-21T23:39:32.495Z,10.05
2022-08-21T23:41:42.606Z,11.13
2022-08-21T23:43:58.395Z,10.07
2022-08-21T23:46:11.289Z,12.80
2022-08-21T23:48:29.561Z,15.27
2022-08-21T23:50:43.799Z,13.55
2022-08-21T23:53:09.562Z,15.43
2022-08-21T23:55:26.020Z,16.48
2022-08-21T23:57:45.481Z,13.52
